sensor_id;sensor_type;location;lat;lon;timestamp;temperature;humidity
27978;DHT22;15314;49.248;6.968;2024-01-30T00:00:45;6.30;99.90
27978;DHT22;15314;49.248;6.968;2024-01-30T00:02:05;6.30;99.90
27978;DHT22;15314;49.248;6.968;2024-01-30T00:03:24;6.30;99.90
27978;DHT22;15314;49.248;6.968;2024-01-30T00:04:43;6.30;99.90
27978;DHT22;15314;49.248;6.968;2024-01-30T00:06:03;6.30;99.90
27978;DHT22;15314;49.248;6.968;2024-01-30T00:07:22;6.30;99.90
27978;DHT22;15314;49.248;6.968;2024-01-30T00:08:41;6.40;99.90
27978;DHT22;15314;49.248;6.968;2024-01-30T00:10:00;6.30;99.90
27978;DHT22;15314;49.248;6.968;2024-01-30T00:11:20;6.30;99.90
27978;DHT22;15314;49.248;6.968;2024-01-30T00:12:40;6.20;99.90
27978;DHT22;15314;49.248;6.968;2024-01-30T00:13:56;6.10;99.90
27978;DHT22;15314;49.248;6.968;2024-01-30T00:15:15;6.10;99.90
27978;DHT22;15314;49.248;6.968;2024-01-30T00:16:35;6.00;99.90
27978;DHT22;15314;49.248;6.968;2024-01-30T00:17:54;6.00;99.90
27978;DHT22;15314;49.248;6.968;2024-01-30T00:19:13;6.00;99.90
27978;DHT22;15314;49.248;6.968;2024-01-30T00:20:32;6.00;99.90
27978;DHT22;15314;49.248;6.968;2024-01-30T00:21:51;5.90;99.90
27978;DHT22;15314;49.248;6.968;2024-01-30T00:23:11;5.80;99.90
27978;DHT22;15314;49.248;6.968;2024-01-30T00:24:30;5.80;99.90
27978;DHT22;15314;49.248;6.968;2024-01-30T00:25:50;5.80;99.90
27978;DHT22;15314;49.248;6.968;2024-01-30T00:27:09;5.80;99.90
27978;DHT22;15314;49.248;6.968;2024-01-30T00:28:28;5.80;99.90
27978;DHT22;15314;49.248;6.968;2024-01-30T00:29:47;5.70;99.90
27978;DHT22;15314;49.248;6.968;2024-01-30T00:31:07;5.70;99.90
27978;DHT22;15314;49.248;6.968;2024-01-30T00:32:26;5.70;99.90
27978;DHT22;15314;49.248;6.968;2024-01-30T00:33:45;5.60;99.90
27978;DHT22;15314;49.248;6.968;2024-01-30T00:35:04;5.60;99.90
27978;DHT22;15314;49.248;6.968;2024-01-30T00:36:24;5.60;99.90
27978;DHT22;15314;49.248;6.968;2024-01-30T00:37:43;5.70;99.90
27978;DHT22;15314;49.248;6.968;2024-01-30T00:39:02;5.60;99.90
27978;DHT22;15314;49.248;6.968;2024-01-30T00:40:24;5.60;99.90
27978;DHT22;15314;49.248;6.968;2024-01-30T00:41:43;5.70;99.90
27978;DHT22;15314;49.248;6.968;2024-01-30T00:43:02;5.70;99.90
27978;DHT22;15314;49.248;6.968;2024-01-30T00:44:21;5.70;99.90
27978;DHT22;15314;49.248;6.968;2024-01-30T00:45:40;5.60;99.90
27978;DHT22;15314;49.248;6.968;2024-01-30T00:46:59;5.60;99.90
27978;DHT22;15314;49.248;6.968;2024-01-30T00:48:19;5.60;99.90
27978;DHT22;15314;49.248;6.968;2024-01-30T00:49:35;5.50;99.90
27978;DHT22;15314;49.248;6.968;2024-01-30T00:50:54;5.50;99.90
27978;DHT22;15314;49.248;6.968;2024-01-30T00:52:14;5.50;99.90
27978;DHT22;15314;49.248;6.968;2024-01-30T00:53:33;5.50;99.90
27978;DHT22;15314;49.248;6.968;2024-01-30T00:54:52;5.50;99.90
27978;DHT22;15314;49.248;6.968;2024-01-30T00:56:11;5.50;99.90
27978;DHT22;15314;49.248;6.968;2024-01-30T00:57:30;5.50;99.90
27978;DHT22;15314;49.248;6.968;2024-01-30T00:58:50;5.50;99.90
27978;DHT22;15314;49.248;6.968;2024-01-30T01:00:09;5.40;99.90
27978;DHT22;15314;49.248;6.968;2024-01-30T01:01:29;5.50;99.90
27978;DHT22;15314;49.248;6.968;2024-01-30T01:02:48;5.50;99.90
27978;DHT22;15314;49.248;6.968;2024-01-30T01:04:07;5.50;99.90
27978;DHT22;15314;49.248;6.968;2024-01-30T01:05:26;5.60;99.90
27978;DHT22;15314;49.248;6.968;2024-01-30T01:06:45;5.60;99.90
27978;DHT22;15314;49.248;6.968;2024-01-30T01:08:05;5.50;99.90
27978;DHT22;15314;49.248;6.968;2024-01-30T01:09:24;5.50;99.90
27978;DHT22;15314;49.248;6.968;2024-01-30T01:10:44;5.50;99.90
27978;DHT22;15314;49.248;6.968;2024-01-30T01:12:04;5.50;99.90
27978;DHT22;15314;49.248;6.968;2024-01-30T01:13:23;5.50;99.90
27978;DHT22;15314;49.248;6.968;2024-01-30T01:14:42;5.50;99.90
27978;DHT22;15314;49.248;6.968;2024-01-30T01:16:02;5.50;99.90
27978;DHT22;15314;49.248;6.968;2024-01-30T01:17:21;5.50;99.90
27978;DHT22;15314;49.248;6.968;2024-01-30T01:18:40;5.50;99.90
27978;DHT22;15314;49.248;6.968;2024-01-30T01:20:00;5.50;99.90
27978;DHT22;15314;49.248;6.968;2024-01-30T01:21:18;5.40;99.90
27978;DHT22;15314;49.248;6.968;2024-01-30T01:22:35;5.40;99.90
27978;DHT22;15314;49.248;6.968;2024-01-30T01:23:54;5.50;99.90
27978;DHT22;15314;49.248;6.968;2024-01-30T01:25:13;5.40;99.90
27978;DHT22;15314;49.248;6.968;2024-01-30T01:26:32;5.50;99.90
27978;DHT22;15314;49.248;6.968;2024-01-30T01:27:51;5.50;99.90
27978;DHT22;15314;49.248;6.968;2024-01-30T01:29:08;5.50;99.90
27978;DHT22;15314;49.248;6.968;2024-01-30T01:30:31;5.60;99.90
27978;DHT22;15314;49.248;6.968;2024-01-30T01:31:50;5.50;99.90
27978;DHT22;15314;49.248;6.968;2024-01-30T01:33:10;5.60;99.90
27978;DHT22;15314;49.248;6.968;2024-01-30T01:34:29;5.60;99.90
27978;DHT22;15314;49.248;6.968;2024-01-30T01:35:48;5.50;99.90
27978;DHT22;15314;49.248;6.968;2024-01-30T01:37:07;5.50;99.90
27978;DHT22;15314;49.248;6.968;2024-01-30T01:38:27;5.50;99.90
27978;DHT22;15314;49.248;6.968;2024-01-30T01:39:46;5.50;99.90
27978;DHT22;15314;49.248;6.968;2024-01-30T01:41:05;5.50;99.90
27978;DHT22;15314;49.248;6.968;2024-01-30T01:42:21;5.50;99.90
27978;DHT22;15314;49.248;6.968;2024-01-30T01:43:41;5.50;99.90
27978;DHT22;15314;49.248;6.968;2024-01-30T01:45:01;5.40;99.90
27978;DHT22;15314;49.248;6.968;2024-01-30T01:46:20;5.40;99.90
27978;DHT22;15314;49.248;6.968;2024-01-30T01:47:39;5.40;99.90
27978;DHT22;15314;49.248;6.968;2024-01-30T01:48:58;5.40;99.90
27978;DHT22;15314;49.248;6.968;2024-01-30T01:50:20;5.40;99.90
27978;DHT22;15314;49.248;6.968;2024-01-30T01:51:41;5.40;99.90
27978;DHT22;15314;49.248;6.968;2024-01-30T01:53:02;5.30;99.90
27978;DHT22;15314;49.248;6.968;2024-01-30T01:54:21;5.30;99.90
27978;DHT22;15314;49.248;6.968;2024-01-30T01:55:41;5.30;99.90
27978;DHT22;15314;49.248;6.968;2024-01-30T01:57:01;5.30;99.90
27978;DHT22;15314;49.248;6.968;2024-01-30T01:58:17;5.30;99.90
27978;DHT22;15314;49.248;6.968;2024-01-30T01:59:39;5.20;99.90
27978;DHT22;15314;49.248;6.968;2024-01-30T02:00:59;5.20;99.90
27978;DHT22;15314;49.248;6.968;2024-01-30T02:02:19;5.30;99.90
27978;DHT22;15314;49.248;6.968;2024-01-30T02:03:40;5.30;99.90
27978;DHT22;15314;49.248;6.968;2024-01-30T02:05:00;5.30;99.90
27978;DHT22;15314;49.248;6.968;2024-01-30T02:06:20;5.40;99.90
27978;DHT22;15314;49.248;6.968;2024-01-30T02:07:40;5.40;99.90
27978;DHT22;15314;49.248;6.968;2024-01-30T02:09:00;5.40;99.90
27978;DHT22;15314;49.248;6.968;2024-01-30T02:10:19;5.30;99.90
27978;DHT22;15314;49.248;6.968;2024-01-30T02:11:38;5.30;99.90
27978;DHT22;15314;49.248;6.968;2024-01-30T02:12:57;5.30;99.90
27978;DHT22;15314;49.248;6.968;2024-01-30T02:14:16;5.30;99.90
27978;DHT22;15314;49.248;6.968;2024-01-30T02:15:35;5.30;99.90
27978;DHT22;15314;49.248;6.968;2024-01-30T02:16:54;5.20;99.90
27978;DHT22;15314;49.248;6.968;2024-01-30T02:18:14;5.20;99.90
27978;DHT22;15314;49.248;6.968;2024-01-30T02:19:33;5.20;99.90
27978;DHT22;15314;49.248;6.968;2024-01-30T02:20:55;5.10;99.90
27978;DHT22;15314;49.248;6.968;2024-01-30T02:22:15;5.10;99.90
27978;DHT22;15314;49.248;6.968;2024-01-30T02:23:34;5.20;99.90
27978;DHT22;15314;49.248;6.968;2024-01-30T02:24:54;5.20;99.90
27978;DHT22;15314;49.248;6.968;2024-01-30T02:26:13;5.20;99.90
27978;DHT22;15314;49.248;6.968;2024-01-30T02:27:32;5.20;99.90
27978;DHT22;15314;49.248;6.968;2024-01-30T02:28:51;5.10;99.90
27978;DHT22;15314;49.248;6.968;2024-01-30T02:30:10;5.20;99.90
27978;DHT22;15314;49.248;6.968;2024-01-30T02:31:30;5.10;99.90
27978;DHT22;15314;49.248;6.968;2024-01-30T02:32:49;5.10;99.90
27978;DHT22;15314;49.248;6.968;2024-01-30T02:34:08;5.10;99.90
27978;DHT22;15314;49.248;6.968;2024-01-30T02:35:27;5.00;99.90
27978;DHT22;15314;49.248;6.968;2024-01-30T02:36:47;5.00;99.90
27978;DHT22;15314;49.248;6.968;2024-01-30T02:38:06;5.00;99.90
27978;DHT22;15314;49.248;6.968;2024-01-30T02:39:25;5.00;99.90
27978;DHT22;15314;49.248;6.968;2024-01-30T02:40:44;5.00;99.90
27978;DHT22;15314;49.248;6.968;2024-01-30T02:42:03;5.00;99.90
27978;DHT22;15314;49.248;6.968;2024-01-30T02:43:23;5.00;99.90
27978;DHT22;15314;49.248;6.968;2024-01-30T02:44:42;5.00;99.90
27978;DHT22;15314;49.248;6.968;2024-01-30T02:46:01;5.00;99.90
27978;DHT22;15314;49.248;6.968;2024-01-30T02:47:20;5.00;99.90
27978;DHT22;15314;49.248;6.968;2024-01-30T02:48:40;5.00;99.90
27978;DHT22;15314;49.248;6.968;2024-01-30T02:49:59;5.00;99.90
27978;DHT22;15314;49.248;6.968;2024-01-30T02:51:18;5.00;99.90
27978;DHT22;15314;49.248;6.968;2024-01-30T02:52:37;5.10;99.90
27978;DHT22;15314;49.248;6.968;2024-01-30T02:53:56;5.10;99.90
27978;DHT22;15314;49.248;6.968;2024-01-30T02:55:15;5.00;99.90
27978;DHT22;15314;49.248;6.968;2024-01-30T02:56:36;5.00;99.90
27978;DHT22;15314;49.248;6.968;2024-01-30T02:57:56;5.10;99.90
27978;DHT22;15314;49.248;6.968;2024-01-30T02:59:15;5.10;99.90
27978;DHT22;15314;49.248;6.968;2024-01-30T03:00:34;5.10;99.90
27978;DHT22;15314;49.248;6.968;2024-01-30T03:01:54;5.20;99.90
27978;DHT22;15314;49.248;6.968;2024-01-30T03:03:13;5.20;99.90
27978;DHT22;15314;49.248;6.968;2024-01-30T03:04:32;5.20;99.90
27978;DHT22;15314;49.248;6.968;2024-01-30T03:05:52;5.20;99.90
27978;DHT22;15314;49.248;6.968;2024-01-30T03:07:11;5.10;99.90
27978;DHT22;15314;49.248;6.968;2024-01-30T03:08:30;5.00;99.90
27978;DHT22;15314;49.248;6.968;2024-01-30T03:09:50;5.00;99.90
27978;DHT22;15314;49.248;6.968;2024-01-30T03:11:09;5.00;99.90
27978;DHT22;15314;49.248;6.968;2024-01-30T03:12:28;5.00;99.90
27978;DHT22;15314;49.248;6.968;2024-01-30T03:13:47;4.90;99.90
27978;DHT22;15314;49.248;6.968;2024-01-30T03:15:06;4.80;99.90
27978;DHT22;15314;49.248;6.968;2024-01-30T03:16:26;4.80;99.90
27978;DHT22;15314;49.248;6.968;2024-01-30T03:17:45;4.80;99.90
27978;DHT22;15314;49.248;6.968;2024-01-30T03:19:06;4.80;99.90
27978;DHT22;15314;49.248;6.968;2024-01-30T03:20:26;4.80;99.90
27978;DHT22;15314;49.248;6.968;2024-01-30T03:21:46;4.80;99.90
27978;DHT22;15314;49.248;6.968;2024-01-30T03:23:08;4.70;99.90
27978;DHT22;15314;49.248;6.968;2024-01-30T03:24:27;4.70;99.90
27978;DHT22;15314;49.248;6.968;2024-01-30T03:25:46;4.70;99.90
27978;DHT22;15314;49.248;6.968;2024-01-30T03:27:05;4.70;99.90
27978;DHT22;15314;49.248;6.968;2024-01-30T03:28:24;4.70;99.90
27978;DHT22;15314;49.248;6.968;2024-01-30T03:29:44;4.70;99.90
27978;DHT22;15314;49.248;6.968;2024-01-30T03:31:00;4.70;99.90
27978;DHT22;15314;49.248;6.968;2024-01-30T03:32:19;4.70;99.90
27978;DHT22;15314;49.248;6.968;2024-01-30T03:33:39;4.70;99.90
27978;DHT22;15314;49.248;6.968;2024-01-30T03:34:58;4.70;99.90
27978;DHT22;15314;49.248;6.968;2024-01-30T03:36:18;4.70;99.90
27978;DHT22;15314;49.248;6.968;2024-01-30T03:37:37;4.70;99.90
27978;DHT22;15314;49.248;6.968;2024-01-30T03:38:53;4.80;99.90
27978;DHT22;15314;49.248;6.968;2024-01-30T03:40:13;4.80;99.90
27978;DHT22;15314;49.248;6.968;2024-01-30T03:41:32;4.80;99.90
27978;DHT22;15314;49.248;6.968;2024-01-30T03:42:52;4.90;99.90
27978;DHT22;15314;49.248;6.968;2024-01-30T03:44:11;5.00;99.90
27978;DHT22;15314;49.248;6.968;2024-01-30T03:45:30;5.00;99.90
27978;DHT22;15314;49.248;6.968;2024-01-30T03:46:49;5.00;99.90
27978;DHT22;15314;49.248;6.968;2024-01-30T03:48:09;5.00;99.90
27978;DHT22;15314;49.248;6.968;2024-01-30T03:49:28;5.00;99.90
27978;DHT22;15314;49.248;6.968;2024-01-30T03:50:47;5.00;99.90
27978;DHT22;15314;49.248;6.968;2024-01-30T03:52:06;5.00;99.90
27978;DHT22;15314;49.248;6.968;2024-01-30T03:53:25;5.00;99.90
27978;DHT22;15314;49.248;6.968;2024-01-30T03:54:45;5.00;99.90
27978;DHT22;15314;49.248;6.968;2024-01-30T03:56:04;5.10;99.90
27978;DHT22;15314;49.248;6.968;2024-01-30T03:57:23;5.10;99.90
27978;DHT22;15314;49.248;6.968;2024-01-30T03:58:42;5.20;99.90
27978;DHT22;15314;49.248;6.968;2024-01-30T04:00:02;5.20;99.90
27978;DHT22;15314;49.248;6.968;2024-01-30T04:01:24;5.20;99.90
27978;DHT22;15314;49.248;6.968;2024-01-30T04:02:43;5.20;99.90
27978;DHT22;15314;49.248;6.968;2024-01-30T04:04:02;5.10;99.90
27978;DHT22;15314;49.248;6.968;2024-01-30T04:05:22;5.20;99.90
27978;DHT22;15314;49.248;6.968;2024-01-30T04:06:41;5.10;99.90
27978;DHT22;15314;49.248;6.968;2024-01-30T04:08:00;5.00;99.90
27978;DHT22;15314;49.248;6.968;2024-01-30T04:09:19;5.00;99.90
27978;DHT22;15314;49.248;6.968;2024-01-30T04:10:39;4.90;99.90
27978;DHT22;15314;49.248;6.968;2024-01-30T04:11:58;4.90;99.90
27978;DHT22;15314;49.248;6.968;2024-01-30T04:13:17;4.90;99.90
27978;DHT22;15314;49.248;6.968;2024-01-30T04:14:38;4.90;99.90
27978;DHT22;15314;49.248;6.968;2024-01-30T04:16:01;4.90;99.90
27978;DHT22;15314;49.248;6.968;2024-01-30T04:17:21;4.90;99.90
27978;DHT22;15314;49.248;6.968;2024-01-30T04:18:40;5.00;99.90
27978;DHT22;15314;49.248;6.968;2024-01-30T04:19:59;5.00;99.90
27978;DHT22;15314;49.248;6.968;2024-01-30T04:21:18;5.10;99.90
27978;DHT22;15314;49.248;6.968;2024-01-30T04:22:36;5.10;99.90
27978;DHT22;15314;49.248;6.968;2024-01-30T04:23:55;5.10;99.90
27978;DHT22;15314;49.248;6.968;2024-01-30T04:25:15;5.10;99.90
27978;DHT22;15314;49.248;6.968;2024-01-30T04:26:34;5.20;99.90
27978;DHT22;15314;49.248;6.968;2024-01-30T04:27:53;5.10;99.90
27978;DHT22;15314;49.248;6.968;2024-01-30T04:29:12;5.10;99.90
27978;DHT22;15314;49.248;6.968;2024-01-30T04:30:32;5.10;99.90
27978;DHT22;15314;49.248;6.968;2024-01-30T04:31:51;5.10;99.90
27978;DHT22;15314;49.248;6.968;2024-01-30T04:33:10;5.10;99.90
27978;DHT22;15314;49.248;6.968;2024-01-30T04:34:30;5.10;99.90
27978;DHT22;15314;49.248;6.968;2024-01-30T04:35:49;5.20;99.90
27978;DHT22;15314;49.248;6.968;2024-01-30T04:37:08;5.20;99.90
27978;DHT22;15314;49.248;6.968;2024-01-30T04:38:27;5.20;99.90
27978;DHT22;15314;49.248;6.968;2024-01-30T04:39:46;5.20;99.90
27978;DHT22;15314;49.248;6.968;2024-01-30T04:41:05;5.30;99.90
27978;DHT22;15314;49.248;6.968;2024-01-30T04:42:24;5.30;99.90
27978;DHT22;15314;49.248;6.968;2024-01-30T04:43:43;5.30;99.90
27978;DHT22;15314;49.248;6.968;2024-01-30T04:45:03;5.30;99.90
27978;DHT22;15314;49.248;6.968;2024-01-30T04:46:22;5.30;99.90
27978;DHT22;15314;49.248;6.968;2024-01-30T04:47:42;5.30;99.90
27978;DHT22;15314;49.248;6.968;2024-01-30T04:48:58;5.30;99.90
27978;DHT22;15314;49.248;6.968;2024-01-30T04:50:17;5.30;99.90
27978;DHT22;15314;49.248;6.968;2024-01-30T04:51:37;5.30;99.90
27978;DHT22;15314;49.248;6.968;2024-01-30T04:52:57;5.30;99.90
27978;DHT22;15314;49.248;6.968;2024-01-30T04:54:16;5.30;99.90
27978;DHT22;15314;49.248;6.968;2024-01-30T04:55:35;5.30;99.90
27978;DHT22;15314;49.248;6.968;2024-01-30T04:56:55;5.30;99.90
27978;DHT22;15314;49.248;6.968;2024-01-30T04:58:14;5.30;99.90
27978;DHT22;15314;49.248;6.968;2024-01-30T04:59:33;5.30;99.90
27978;DHT22;15314;49.248;6.968;2024-01-30T05:00:53;5.30;99.90
27978;DHT22;15314;49.248;6.968;2024-01-30T05:02:12;5.30;99.90
27978;DHT22;15314;49.248;6.968;2024-01-30T05:03:33;5.20;99.90
27978;DHT22;15314;49.248;6.968;2024-01-30T05:04:53;5.20;99.90
27978;DHT22;15314;49.248;6.968;2024-01-30T05:06:12;5.20;99.90
27978;DHT22;15314;49.248;6.968;2024-01-30T05:07:31;5.20;99.90
27978;DHT22;15314;49.248;6.968;2024-01-30T05:08:50;5.10;99.90
27978;DHT22;15314;49.248;6.968;2024-01-30T05:10:09;5.20;99.90
27978;DHT22;15314;49.248;6.968;2024-01-30T05:11:28;5.20;99.90
27978;DHT22;15314;49.248;6.968;2024-01-30T05:12:47;5.10;99.90
27978;DHT22;15314;49.248;6.968;2024-01-30T05:14:07;5.00;99.90
27978;DHT22;15314;49.248;6.968;2024-01-30T05:15:27;5.00;99.90
27978;DHT22;15314;49.248;6.968;2024-01-30T05:16:46;5.10;99.90
27978;DHT22;15314;49.248;6.968;2024-01-30T05:18:06;5.00;99.90
27978;DHT22;15314;49.248;6.968;2024-01-30T05:19:26;5.00;99.90
27978;DHT22;15314;49.248;6.968;2024-01-30T05:20:45;5.00;99.90
27978;DHT22;15314;49.248;6.968;2024-01-30T05:22:04;5.00;99.90
27978;DHT22;15314;49.248;6.968;2024-01-30T05:23:24;5.00;99.90
27978;DHT22;15314;49.248;6.968;2024-01-30T05:24:43;5.00;99.90
27978;DHT22;15314;49.248;6.968;2024-01-30T05:26:02;5.10;99.90
27978;DHT22;15314;49.248;6.968;2024-01-30T05:27:21;5.10;99.90
27978;DHT22;15314;49.248;6.968;2024-01-30T05:28:41;5.10;99.90
27978;DHT22;15314;49.248;6.968;2024-01-30T05:30:01;5.10;99.90
27978;DHT22;15314;49.248;6.968;2024-01-30T05:31:19;5.00;99.90
27978;DHT22;15314;49.248;6.968;2024-01-30T05:32:39;5.00;99.90
27978;DHT22;15314;49.248;6.968;2024-01-30T05:33:56;5.00;99.90
27978;DHT22;15314;49.248;6.968;2024-01-30T05:35:15;5.10;99.90
27978;DHT22;15314;49.248;6.968;2024-01-30T05:36:34;5.00;99.90
27978;DHT22;15314;49.248;6.968;2024-01-30T05:37:53;5.00;99.90
27978;DHT22;15314;49.248;6.968;2024-01-30T05:39:12;5.00;99.90
27978;DHT22;15314;49.248;6.968;2024-01-30T05:40:32;5.00;99.90
27978;DHT22;15314;49.248;6.968;2024-01-30T05:41:52;5.10;99.90
27978;DHT22;15314;49.248;6.968;2024-01-30T05:43:11;5.10;99.90
27978;DHT22;15314;49.248;6.968;2024-01-30T05:44:30;5.20;99.90
27978;DHT22;15314;49.248;6.968;2024-01-30T05:45:50;5.10;99.90
27978;DHT22;15314;49.248;6.968;2024-01-30T05:47:10;5.10;99.90
27978;DHT22;15314;49.248;6.968;2024-01-30T05:48:28;5.10;99.90
27978;DHT22;15314;49.248;6.968;2024-01-30T05:49:48;5.10;99.90
27978;DHT22;15314;49.248;6.968;2024-01-30T05:51:07;5.00;99.90
27978;DHT22;15314;49.248;6.968;2024-01-30T05:52:27;4.90;99.90
27978;DHT22;15314;49.248;6.968;2024-01-30T05:53:46;4.90;99.90
27978;DHT22;15314;49.248;6.968;2024-01-30T05:55:05;4.90;99.90
27978;DHT22;15314;49.248;6.968;2024-01-30T05:56:25;4.90;99.90
27978;DHT22;15314;49.248;6.968;2024-01-30T05:57:44;4.90;99.90
27978;DHT22;15314;49.248;6.968;2024-01-30T05:59:03;5.00;99.90
27978;DHT22;15314;49.248;6.968;2024-01-30T06:00:23;4.90;99.90
27978;DHT22;15314;49.248;6.968;2024-01-30T06:01:46;4.90;99.90
27978;DHT22;15314;49.248;6.968;2024-01-30T06:03:07;5.00;99.90
27978;DHT22;15314;49.248;6.968;2024-01-30T06:04:23;4.90;99.90
27978;DHT22;15314;49.248;6.968;2024-01-30T06:05:42;4.90;99.90
27978;DHT22;15314;49.248;6.968;2024-01-30T06:07:01;4.90;99.90
27978;DHT22;15314;49.248;6.968;2024-01-30T06:08:21;5.00;99.90
27978;DHT22;15314;49.248;6.968;2024-01-30T06:09:40;5.00;99.90
27978;DHT22;15314;49.248;6.968;2024-01-30T06:11:00;5.00;99.90
27978;DHT22;15314;49.248;6.968;2024-01-30T06:12:20;5.00;99.90
27978;DHT22;15314;49.248;6.968;2024-01-30T06:13:39;5.00;99.90
27978;DHT22;15314;49.248;6.968;2024-01-30T06:14:58;4.90;99.90
27978;DHT22;15314;49.248;6.968;2024-01-30T06:16:17;4.90;99.90
27978;DHT22;15314;49.248;6.968;2024-01-30T06:17:38;4.80;99.90
27978;DHT22;15314;49.248;6.968;2024-01-30T06:18:58;4.80;99.90
27978;DHT22;15314;49.248;6.968;2024-01-30T06:20:18;4.80;99.90
27978;DHT22;15314;49.248;6.968;2024-01-30T06:21:37;4.80;99.90
27978;DHT22;15314;49.248;6.968;2024-01-30T06:22:57;4.80;99.90
27978;DHT22;15314;49.248;6.968;2024-01-30T06:24:17;4.90;99.90
27978;DHT22;15314;49.248;6.968;2024-01-30T06:25:36;4.90;99.90
27978;DHT22;15314;49.248;6.968;2024-01-30T06:26:55;5.00;99.90
27978;DHT22;15314;49.248;6.968;2024-01-30T06:28:11;5.10;99.90
27978;DHT22;15314;49.248;6.968;2024-01-30T06:29:31;5.00;99.90
27978;DHT22;15314;49.248;6.968;2024-01-30T06:30:50;5.00;99.90
27978;DHT22;15314;49.248;6.968;2024-01-30T06:32:09;5.00;99.90
27978;DHT22;15314;49.248;6.968;2024-01-30T06:33:29;4.90;99.90
27978;DHT22;15314;49.248;6.968;2024-01-30T06:34:48;4.90;99.90
27978;DHT22;15314;49.248;6.968;2024-01-30T06:36:07;4.90;99.90
27978;DHT22;15314;49.248;6.968;2024-01-30T06:37:26;4.80;99.90
27978;DHT22;15314;49.248;6.968;2024-01-30T06:38:45;4.80;99.90
27978;DHT22;15314;49.248;6.968;2024-01-30T06:40:05;4.90;99.90
27978;DHT22;15314;49.248;6.968;2024-01-30T06:41:24;4.90;99.90
27978;DHT22;15314;49.248;6.968;2024-01-30T06:42:44;4.90;99.90
27978;DHT22;15314;49.248;6.968;2024-01-30T06:44:03;5.00;99.90
27978;DHT22;15314;49.248;6.968;2024-01-30T06:45:27;5.00;99.90
27978;DHT22;15314;49.248;6.968;2024-01-30T06:46:46;5.10;99.90
27978;DHT22;15314;49.248;6.968;2024-01-30T06:48:05;5.10;99.90
27978;DHT22;15314;49.248;6.968;2024-01-30T06:49:25;5.20;99.90
27978;DHT22;15314;49.248;6.968;2024-01-30T06:50:41;5.20;99.90
27978;DHT22;15314;49.248;6.968;2024-01-30T06:52:00;5.20;99.90
27978;DHT22;15314;49.248;6.968;2024-01-30T06:53:19;5.10;99.90
27978;DHT22;15314;49.248;6.968;2024-01-30T06:54:39;5.10;99.90
27978;DHT22;15314;49.248;6.968;2024-01-30T06:55:58;5.10;99.90
27978;DHT22;15314;49.248;6.968;2024-01-30T06:57:18;5.10;99.90
27978;DHT22;15314;49.248;6.968;2024-01-30T06:58:37;5.20;99.90
27978;DHT22;15314;49.248;6.968;2024-01-30T06:59:56;5.20;99.90
27978;DHT22;15314;49.248;6.968;2024-01-30T07:01:15;5.30;99.90
27978;DHT22;15314;49.248;6.968;2024-01-30T07:02:35;5.30;99.90
27978;DHT22;15314;49.248;6.968;2024-01-30T07:03:56;5.30;99.90
27978;DHT22;15314;49.248;6.968;2024-01-30T07:05:15;5.30;99.90
27978;DHT22;15314;49.248;6.968;2024-01-30T07:06:36;5.20;99.90
27978;DHT22;15314;49.248;6.968;2024-01-30T07:07:52;5.20;99.90
27978;DHT22;15314;49.248;6.968;2024-01-30T07:09:12;5.30;99.90
27978;DHT22;15314;49.248;6.968;2024-01-30T07:10:31;5.30;99.90
27978;DHT22;15314;49.248;6.968;2024-01-30T07:11:50;5.20;99.90
27978;DHT22;15314;49.248;6.968;2024-01-30T07:13:13;5.40;99.90
27978;DHT22;15314;49.248;6.968;2024-01-30T07:14:33;5.40;99.90
27978;DHT22;15314;49.248;6.968;2024-01-30T07:15:52;5.40;99.90
27978;DHT22;15314;49.248;6.968;2024-01-30T07:17:11;5.40;99.90
27978;DHT22;15314;49.248;6.968;2024-01-30T07:18:31;5.50;99.90
27978;DHT22;15314;49.248;6.968;2024-01-30T07:19:50;5.50;99.90
27978;DHT22;15314;49.248;6.968;2024-01-30T07:21:09;5.50;99.90
27978;DHT22;15314;49.248;6.968;2024-01-30T07:22:29;5.60;99.90
27978;DHT22;15314;49.248;6.968;2024-01-30T07:23:48;5.60;99.90
27978;DHT22;15314;49.248;6.968;2024-01-30T07:25:08;5.60;99.90
27978;DHT22;15314;49.248;6.968;2024-01-30T07:26:28;5.70;99.90
27978;DHT22;15314;49.248;6.968;2024-01-30T07:27:47;5.80;99.90
27978;DHT22;15314;49.248;6.968;2024-01-30T07:29:06;5.80;99.90
27978;DHT22;15314;49.248;6.968;2024-01-30T07:30:25;5.80;99.90
27978;DHT22;15314;49.248;6.968;2024-01-30T07:31:44;5.80;99.90
27978;DHT22;15314;49.248;6.968;2024-01-30T07:33:04;5.80;99.90
27978;DHT22;15314;49.248;6.968;2024-01-30T07:34:23;5.90;99.90
27978;DHT22;15314;49.248;6.968;2024-01-30T07:35:43;5.80;99.90
27978;DHT22;15314;49.248;6.968;2024-01-30T07:37:02;5.80;99.90
27978;DHT22;15314;49.248;6.968;2024-01-30T07:38:22;5.90;99.90
27978;DHT22;15314;49.248;6.968;2024-01-30T07:39:41;5.90;99.90
27978;DHT22;15314;49.248;6.968;2024-01-30T07:41:01;5.90;99.90
27978;DHT22;15314;49.248;6.968;2024-01-30T07:42:20;5.90;99.90
27978;DHT22;15314;49.248;6.968;2024-01-30T07:43:39;5.80;99.90
27978;DHT22;15314;49.248;6.968;2024-01-30T07:44:59;5.80;99.90
27978;DHT22;15314;49.248;6.968;2024-01-30T07:46:22;5.90;99.90
27978;DHT22;15314;49.248;6.968;2024-01-30T07:47:41;6.00;99.90
27978;DHT22;15314;49.248;6.968;2024-01-30T07:48:58;5.90;99.90
27978;DHT22;15314;49.248;6.968;2024-01-30T07:50:18;6.00;99.90
27978;DHT22;15314;49.248;6.968;2024-01-30T07:51:38;6.00;99.90
27978;DHT22;15314;49.248;6.968;2024-01-30T07:52:59;6.00;99.90
27978;DHT22;15314;49.248;6.968;2024-01-30T07:54:18;6.00;99.90
27978;DHT22;15314;49.248;6.968;2024-01-30T07:55:37;6.00;99.90
27978;DHT22;15314;49.248;6.968;2024-01-30T07:56:57;6.00;99.90
27978;DHT22;15314;49.248;6.968;2024-01-30T07:58:16;6.00;99.90
27978;DHT22;15314;49.248;6.968;2024-01-30T07:59:35;6.10;99.90
27978;DHT22;15314;49.248;6.968;2024-01-30T08:00:54;6.20;99.90
27978;DHT22;15314;49.248;6.968;2024-01-30T08:02:15;6.20;99.90
27978;DHT22;15314;49.248;6.968;2024-01-30T08:03:34;6.30;99.90
27978;DHT22;15314;49.248;6.968;2024-01-30T08:04:54;6.30;99.90
27978;DHT22;15314;49.248;6.968;2024-01-30T08:06:14;6.50;99.90
27978;DHT22;15314;49.248;6.968;2024-01-30T08:07:33;6.60;99.90
27978;DHT22;15314;49.248;6.968;2024-01-30T08:08:52;6.70;99.90
27978;DHT22;15314;49.248;6.968;2024-01-30T08:10:12;6.80;99.90
27978;DHT22;15314;49.248;6.968;2024-01-30T08:11:32;7.00;99.90
27978;DHT22;15314;49.248;6.968;2024-01-30T08:12:51;7.10;99.90
27978;DHT22;15314;49.248;6.968;2024-01-30T08:14:07;7.10;99.90
27978;DHT22;15314;49.248;6.968;2024-01-30T08:15:26;7.20;99.90
27978;DHT22;15314;49.248;6.968;2024-01-30T08:16:46;7.30;99.90
27978;DHT22;15314;49.248;6.968;2024-01-30T08:18:05;7.40;99.90
27978;DHT22;15314;49.248;6.968;2024-01-30T08:19:26;7.50;99.90
27978;DHT22;15314;49.248;6.968;2024-01-30T08:20:45;7.70;99.90
27978;DHT22;15314;49.248;6.968;2024-01-30T08:22:04;7.90;99.90
27978;DHT22;15314;49.248;6.968;2024-01-30T08:23:24;8.00;99.90
27978;DHT22;15314;49.248;6.968;2024-01-30T08:24:43;8.10;99.90
27978;DHT22;15314;49.248;6.968;2024-01-30T08:26:02;8.20;99.90
27978;DHT22;15314;49.248;6.968;2024-01-30T08:27:21;8.30;99.90
27978;DHT22;15314;49.248;6.968;2024-01-30T08:28:40;8.30;99.90